createdAt,value
2022-08-11T00:01:27.123Z,26.74
2022-08-11T00:04:04.995Z,26.72
2022-08-11T00:06:38.105Z,26.74
2022-08-11T00:09:10.769Z,26.62
2022-08-11T00:11:43.884Z,26.52
2022-08-11T00:14:24.466Z,26.42
2022-08-11T00:17:10.440Z,26.36
2022-08-11T00:20:12.348Z,26.44
2022-08-11T00:22:42.921Z,26.34
2022-08-11T00:25:21.745Z,26.26
2022-08-11T00:27:50.545Z,26.26
2022-08-11T00:30:18.983Z,26.12
2022-08-11T00:33:08.245Z,26.01
2022-08-11T00:35:55.701Z,26.00
2022-08-11T00:38:30.290Z,25.91
2022-08-11T00:41:31.700Z,25.69
2022-08-11T00:44:14.120Z,25.60
2022-08-11T00:46:57.718Z,25.56
2022-08-11T00:49:46.546Z,25.56
2022-08-11T00:52:49.556Z,25.45
2022-08-11T00:55:34.830Z,25.33
2022-08-11T00:58:21.743Z,25.35
2022-08-11T01:00:59.438Z,25.36
2022-08-11T01:03:33.777Z,25.31
2022-08-11T01:06:24.045Z,25.21
2022-08-11T01:09:18.009Z,25.11
2022-08-11T01:12:27.040Z,25.01
2022-08-11T01:15:30.356Z,24.95
2022-08-11T01:18:18.281Z,24.91
2022-08-11T01:21:08.655Z,24.76
2022-08-11T01:24:10.596Z,24.67
2022-08-11T01:27:19.008Z,24.61
2022-08-11T01:30:19.165Z,24.52
2022-08-11T01:33:30.441Z,24.51
2022-08-11T01:36:43.725Z,24.44
2022-08-11T01:39:46.082Z,24.38
2022-08-11T01:42:41.885Z,24.25
2022-08-11T01:45:20.930Z,24.10
2022-08-11T01:48:01.799Z,24.04
2022-08-11T01:50:48.910Z,23.97
2022-08-11T01:53:37.711Z,23.97
2022-08-11T01:56:23.145Z,23.88
2022-08-11T01:59:24.525Z,23.82
2022-08-11T02:02:04.692Z,23.72
2022-08-11T02:04:54.375Z,23.67
2022-08-11T02:07:28.360Z,23.63
2022-08-11T02:10:26.873Z,23.51
2022-08-11T02:13:46.120Z,23.44
2022-08-11T02:16:19.380Z,23.40
2022-08-11T02:19:20.431Z,23.35
2022-08-11T02:22:23.036Z,23.31
2022-08-11T02:25:03.400Z,23.20
2022-08-11T02:27:46.601Z,23.10
2022-08-11T02:30:21.801Z,23.03
2022-08-11T02:33:23.080Z,23.00
2022-08-11T02:36:09.635Z,22.91
2022-08-11T02:38:46.877Z,22.79
2022-08-11T02:41:51.565Z,22.72
2022-08-11T02:44:38.286Z,22.62
2022-08-11T02:47:39.150Z,22.56
2022-08-11T02:50:20.036Z,22.50
2022-08-11T02:53:10.506Z,22.38
2022-08-11T02:55:57.296Z,22.34
2022-08-11T02:58:38.247Z,22.26
2022-08-11T03:01:24.796Z,22.20
2022-08-11T03:04:10.166Z,22.18
2022-08-11T03:07:06.535Z,22.17
2022-08-11T03:10:20.271Z,22.11
2022-08-11T03:13:39.558Z,22.06
2022-08-11T03:16:49.077Z,21.98
2022-08-11T03:19:25.109Z,21.92
2022-08-11T03:22:36.055Z,21.84
2022-08-11T03:25:12.849Z,21.82
2022-08-11T03:27:50.915Z,21.77
2022-08-11T03:30:51.721Z,21.63
2022-08-11T03:33:53.475Z,21.56
2022-08-11T03:37:15.469Z,21.49
2022-08-11T03:40:03.677Z,21.42
2022-08-11T03:42:48.854Z,21.39
2022-08-11T03:45:43.242Z,21.37
2022-08-11T03:48:20.371Z,21.33
2022-08-11T03:50:53.137Z,21.31
2022-08-11T03:53:57.817Z,21.24
2022-08-11T03:57:18.767Z,21.18
2022-08-11T03:59:58.601Z,21.15
2022-08-11T04:02:45.341Z,21.12
2022-08-11T04:05:52.077Z,21.04
2022-08-11T04:08:38.921Z,21.00
2022-08-11T04:11:52.511Z,20.96
2022-08-11T04:14:53.960Z,20.98
2022-08-11T04:17:31.341Z,20.98
2022-08-11T04:20:24.761Z,20.93
2022-08-11T04:23:04.526Z,20.90
2022-08-11T04:26:18.977Z,20.89
2022-08-11T04:29:02.960Z,20.85
2022-08-11T04:32:19.236Z,20.81
2022-08-11T04:35:18.670Z,20.80
2022-08-11T04:38:10.595Z,20.81
2022-08-11T04:41:19.728Z,20.76
2022-08-11T04:44:08.764Z,20.74
2022-08-11T04:46:58.267Z,20.71
2022-08-11T04:50:36.835Z,20.68
2022-08-11T04:53:42.006Z,20.66
2022-08-11T04:56:40.520Z,20.62
2022-08-11T05:00:17.333Z,20.57
2022-08-11T05:03:23.402Z,20.50
2022-08-11T05:06:07.210Z,20.46
2022-08-11T05:09:05.171Z,20.45
2022-08-11T05:11:59.519Z,20.44
2022-08-11T05:15:11.012Z,20.42
2022-08-11T05:18:19.546Z,20.46
2022-08-11T05:21:15.351Z,20.44
2022-08-11T05:24:12.848Z,20.42
2022-08-11T05:27:13.313Z,20.39
2022-08-11T05:30:17.957Z,20.36
2022-08-11T05:33:15.785Z,20.33
2022-08-11T05:36:02.362Z,20.24
2022-08-11T05:38:56.515Z,20.21
2022-08-11T05:41:46.675Z,20.25
2022-08-11T05:44:40.042Z,20.28
2022-08-11T05:47:27.469Z,20.27
2022-08-11T05:50:15.117Z,20.25
2022-08-11T05:53:09.222Z,20.31
2022-08-11T05:56:03.978Z,20.26
2022-08-11T05:58:42.936Z,20.18
2022-08-11T06:01:23.739Z,20.15
2022-08-11T06:04:13.800Z,20.12
2022-08-11T06:06:48.161Z,20.09
2022-08-11T06:09:16.676Z,20.05
2022-08-11T06:11:45.635Z,19.98
2022-08-11T06:14:16.515Z,19.95
2022-08-11T06:16:53.635Z,19.95
2022-08-11T06:19:24.456Z,19.94
2022-08-11T06:21:54.127Z,19.93
2022-08-11T06:24:24.035Z,19.93
2022-08-11T06:27:12.808Z,19.95
2022-08-11T06:29:55.213Z,19.91
2022-08-11T06:32:33.432Z,19.92
2022-08-11T06:35:11.751Z,19.93
2022-08-11T06:37:48.111Z,19.88
2022-08-11T06:40:28.675Z,19.83
2022-08-11T06:43:11.801Z,19.84
2022-08-11T06:46:05.545Z,19.86
2022-08-11T06:48:35.316Z,19.84
2022-08-11T06:51:13.477Z,19.84
2022-08-11T06:54:04.437Z,19.84
2022-08-11T06:57:28.273Z,19.87
2022-08-11T07:00:08.035Z,19.81
2022-08-11T07:02:44.750Z,19.82
2022-08-11T07:05:47.717Z,19.81
2022-08-11T07:09:08.195Z,19.80
2022-08-11T07:12:19.396Z,19.77
2022-08-11T07:15:13.080Z,19.76
2022-08-11T07:17:50.601Z,19.79
2022-08-11T07:20:38.435Z,19.77
2022-08-11T07:23:29.247Z,19.75
2022-08-11T07:26:19.876Z,19.73
2022-08-11T07:28:56.752Z,19.72
2022-08-11T07:31:33.155Z,19.73
2022-08-11T07:34:29.334Z,19.71
2022-08-11T07:37:01.636Z,19.71
2022-08-11T07:39:40.424Z,19.71
2022-08-11T07:42:11.881Z,19.68
2022-08-11T07:45:01.497Z,19.66
2022-08-11T07:47:49.156Z,19.67
2022-08-11T07:50:36.205Z,19.62
2022-08-11T07:53:05.500Z,19.65
2022-08-11T07:55:49.566Z,19.66
2022-08-11T07:58:45.605Z,19.65
2022-08-11T08:01:43.010Z,19.63
2022-08-11T08:04:36.805Z,19.61
2022-08-11T08:07:25.227Z,19.60
2022-08-11T08:10:16.018Z,19.58
2022-08-11T08:13:03.719Z,19.54
2022-08-11T08:15:51.248Z,19.53
2022-08-11T08:18:26.914Z,19.50
2022-08-11T08:21:12.836Z,19.49
2022-08-11T08:23:47.400Z,19.47
2022-08-11T08:26:40.525Z,19.47
2022-08-11T08:29:27.315Z,19.45
2022-08-11T08:31:57.480Z,19.45
2022-08-11T08:34:27.078Z,19.42
2022-08-11T08:36:59.882Z,19.40
2022-08-11T08:39:28.434Z,19.34
2022-08-11T08:42:00.196Z,19.30
2022-08-11T08:44:39.242Z,19.26
2022-08-11T08:47:15.237Z,19.22
2022-08-11T08:50:27.561Z,19.18
2022-08-11T08:53:02.916Z,19.14
2022-08-11T08:55:33.165Z,19.11
2022-08-11T08:58:03.476Z,19.08
2022-08-11T09:00:43.924Z,19.06
2022-08-11T09:03:38.897Z,19.03
2022-08-11T09:06:02.184Z,19.00
2022-08-11T09:08:34.039Z,18.94
2022-08-11T09:11:23.081Z,18.89
2022-08-11T09:14:05.861Z,18.85
2022-08-11T09:16:37.480Z,18.81
2022-08-11T09:19:06.756Z,18.78
2022-08-11T09:21:49.639Z,18.74
2022-08-11T09:24:38.917Z,18.67
2022-08-11T09:27:11.523Z,18.63
2022-08-11T09:29:40.350Z,18.59
2022-08-11T09:32:09.681Z,18.58
2022-08-11T09:34:40.265Z,18.54
2022-08-11T09:37:54.069Z,18.49
2022-08-11T09:40:30.435Z,18.45
2022-08-11T09:43:24.536Z,18.39
2022-08-11T09:45:55.715Z,18.34
2022-08-11T09:48:27.075Z,18.31
2022-08-11T09:51:02.595Z,18.25
2022-08-11T09:53:40.973Z,18.21
2022-08-11T09:56:35.133Z,18.13
2022-08-11T09:59:05.476Z,18.08
2022-08-11T10:01:47.256Z,18.06
2022-08-11T10:04:43.726Z,18.04
2022-08-11T10:07:15.556Z,17.97
2022-08-11T10:10:12.420Z,17.90
2022-08-11T10:12:49.315Z,17.88
2022-08-11T10:15:35.306Z,17.86
2022-08-11T10:18:33.475Z,17.84
2022-08-11T10:21:12.675Z,17.80
2022-08-11T10:24:05.595Z,17.78
2022-08-11T10:26:54.123Z,17.73
2022-08-11T10:30:07.558Z,17.67
2022-08-11T10:32:58.798Z,17.62
2022-08-11T10:35:33.705Z,17.59
2022-08-11T10:38:06.717Z,17.57
2022-08-11T10:40:40.547Z,17.57
2022-08-11T10:44:01.761Z,17.58
2022-08-11T10:46:30.034Z,17.52
2022-08-11T10:49:00.200Z,17.48
2022-08-11T10:51:50.963Z,17.44
2022-08-11T10:54:41.962Z,17.40
2022-08-11T10:57:29.419Z,17.35
2022-08-11T10:59:59.234Z,17.33
2022-08-11T11:02:28.956Z,17.33
2022-08-11T11:05:20.034Z,17.33
2022-08-11T11:08:32.835Z,17.31
2022-08-11T11:11:04.015Z,17.30
2022-08-11T11:13:55.288Z,17.21
2022-08-11T11:16:26.921Z,17.17
2022-08-11T11:19:00.761Z,17.15
2022-08-11T11:21:31.235Z,17.16
2022-08-11T11:24:13.155Z,17.15
2022-08-11T11:27:01.799Z,17.14
2022-08-11T11:30:03.520Z,17.07
2022-08-11T11:32:49.058Z,17.06
2022-08-11T11:35:20.915Z,17.02
2022-08-11T11:37:56.143Z,17.02
2022-08-11T11:40:33.871Z,17.05
2022-08-11T11:43:02.914Z,17.04
2022-08-11T11:45:31.717Z,17.02
2022-08-11T11:48:02.110Z,17.00
2022-08-11T11:50:35.561Z,17.00
2022-08-11T11:53:07.714Z,17.00
2022-08-11T11:55:37.320Z,16.98
2022-08-11T11:58:26.119Z,16.95
2022-08-11T12:01:16.036Z,16.94
2022-08-11T12:03:50.539Z,16.94
2022-08-11T12:06:20.207Z,16.93
2022-08-11T12:08:51.396Z,16.92
2022-08-11T12:11:40.229Z,16.91
2022-08-11T12:14:12.997Z,16.91
2022-08-11T12:16:44.840Z,16.94
2022-08-11T12:19:26.834Z,16.97
2022-08-11T12:22:15.991Z,17.01
2022-08-11T12:25:02.920Z,17.03
2022-08-11T12:27:32.679Z,17.04
2022-08-11T12:30:07.396Z,17.06
2022-08-11T12:32:38.437Z,17.10
2022-08-11T12:35:08.682Z,17.11
2022-08-11T12:37:41.579Z,17.15
2022-08-11T12:40:43.207Z,17.17
2022-08-11T12:43:42.119Z,17.17
2022-08-11T12:46:15.397Z,17.16
2022-08-11T12:49:05.395Z,17.12
2022-08-11T12:52:13.316Z,17.08
2022-08-11T12:55:00.837Z,17.02
2022-08-11T12:57:52.995Z,16.98
2022-08-11T13:00:40.570Z,16.93
2022-08-11T13:03:29.802Z,16.84
2022-08-11T13:06:01.166Z,16.79
2022-08-11T13:08:32.835Z,16.76
2022-08-11T13:11:21.963Z,16.74
2022-08-11T13:13:57.619Z,16.69
2022-08-11T13:16:31.952Z,16.65
2022-08-11T13:19:01.957Z,16.63
2022-08-11T13:21:31.402Z,16.61
2022-08-11T13:24:02.984Z,16.57
2022-08-11T13:26:43.408Z,16.56
2022-08-11T13:29:25.506Z,16.59
2022-08-11T13:31:56.967Z,16.60
2022-08-11T13:34:27.877Z,16.60
2022-08-11T13:36:59.080Z,16.64
2022-08-11T13:39:30.852Z,16.68
2022-08-11T13:42:01.470Z,16.65
2022-08-11T13:44:37.073Z,16.66
2022-08-11T13:47:08.040Z,16.71
2022-08-11T13:49:41.960Z,16.74
2022-08-11T13:52:16.681Z,16.78
2022-08-11T13:54:49.005Z,16.84
2022-08-11T13:58:08.892Z,16.88
2022-08-11T14:00:27.759Z,16.95
2022-08-11T14:02:58.457Z,17.01
2022-08-11T14:05:35.424Z,17.08
2022-08-11T14:08:37.836Z,17.11
2022-08-11T14:12:23.262Z,17.18
2022-08-11T14:14:15.076Z,17.26
2022-08-11T14:16:49.072Z,17.31
2022-08-11T14:19:19.401Z,17.39
2022-08-11T14:22:08.578Z,17.46
2022-08-11T14:24:44.036Z,17.55
2022-08-11T14:28:32.640Z,17.61
2022-08-11T14:30:03.973Z,17.66
2022-08-11T14:32:32.682Z,17.72
2022-08-11T14:35:03.146Z,17.78
2022-08-11T14:37:31.626Z,17.83
2022-08-11T14:40:22.991Z,17.90
2022-08-11T14:43:19.396Z,17.98
2022-08-11T14:46:26.475Z,18.04
2022-08-11T14:48:55.400Z,18.12
2022-08-11T14:51:24.311Z,18.19
2022-08-11T14:54:12.511Z,18.23
2022-08-11T14:56:42.283Z,18.30
2022-08-11T14:59:12.054Z,18.35
2022-08-11T15:01:59.881Z,18.43
2022-08-11T15:04:35.400Z,18.50
2022-08-11T15:07:16.876Z,18.56
2022-08-11T15:10:11.627Z,18.60
2022-08-11T15:12:37.320Z,18.63
2022-08-11T15:15:27.065Z,18.66
2022-08-11T15:17:57.947Z,18.74
2022-08-11T15:20:48.417Z,18.74
2022-08-11T15:23:54.511Z,18.75
2022-08-11T15:27:01.640Z,18.74
2022-08-11T15:29:51.875Z,18.78
2022-08-11T15:32:24.836Z,18.81
2022-08-11T15:35:18.510Z,18.87
2022-08-11T15:37:48.470Z,18.89
2022-08-11T15:40:35.036Z,18.90
2022-08-11T15:43:29.233Z,19.00
2022-08-11T15:46:03.355Z,19.06
2022-08-11T15:48:36.195Z,19.12
2022-08-11T15:51:35.490Z,19.09
2022-08-11T15:54:16.407Z,19.17
2022-08-11T15:56:47.715Z,19.18
2022-08-11T15:59:42.488Z,19.24
2022-08-11T16:02:34.556Z,19.34
2022-08-11T16:05:08.291Z,19.41
2022-08-11T16:07:40.899Z,19.37
2022-08-11T16:10:17.208Z,19.44
2022-08-11T16:13:22.509Z,19.54
2022-08-11T16:16:14.674Z,19.63
2022-08-11T16:19:05.812Z,19.67
2022-08-11T16:21:36.431Z,19.72
2022-08-11T16:25:58.231Z,19.80
2022-08-11T16:27:11.006Z,19.86
2022-08-11T16:29:45.966Z,19.85
2022-08-11T16:32:18.599Z,19.84
2022-08-11T16:35:12.838Z,19.83
2022-08-11T16:38:01.065Z,19.90
2022-08-11T16:40:30.348Z,19.93
2022-08-11T16:43:20.639Z,20.13
2022-08-11T16:46:08.995Z,20.35
2022-08-11T16:48:39.337Z,20.45
2022-08-11T16:51:09.800Z,20.39
2022-08-11T16:53:59.894Z,20.46
2022-08-11T16:56:37.445Z,20.60
2022-08-11T16:59:18.404Z,20.70
2022-08-11T17:02:00.910Z,20.80
2022-08-11T17:05:13.155Z,20.93
2022-08-11T17:08:03.237Z,21.00
2022-08-11T17:10:57.813Z,21.04
2022-08-11T17:13:38.361Z,21.06
2022-08-11T17:16:13.169Z,21.05
2022-08-11T17:18:55.524Z,21.10
2022-08-11T17:21:31.880Z,21.22
2022-08-11T17:24:09.221Z,21.32
2022-08-11T17:26:57.735Z,21.40
2022-08-11T17:29:53.811Z,21.51
2022-08-11T17:33:01.338Z,21.55
2022-08-11T17:35:42.274Z,21.68
2022-08-11T17:38:24.936Z,21.81
2022-08-11T17:41:23.214Z,21.87
2022-08-11T17:44:13.795Z,21.84
2022-08-11T17:47:05.948Z,21.89
2022-08-11T17:49:38.304Z,21.88
2022-08-11T17:52:35.144Z,21.96
2022-08-11T17:55:51.483Z,22.10
2022-08-11T17:58:30.824Z,22.29
2022-08-11T18:01:00.524Z,22.39
2022-08-11T18:03:53.103Z,22.44
2022-08-11T18:06:34.102Z,22.54
2022-08-11T18:09:34.565Z,22.56
2022-08-11T18:12:25.736Z,22.61
2022-08-11T18:15:15.401Z,22.77
2022-08-11T18:18:03.579Z,22.88
2022-08-11T18:20:51.237Z,23.04
2022-08-11T18:23:47.072Z,23.09
2022-08-11T18:26:40.234Z,23.15
2022-08-11T18:29:27.904Z,23.33
2022-08-11T18:32:21.111Z,23.52
2022-08-11T18:35:11.877Z,23.67
2022-08-11T18:38:06.920Z,23.81
2022-08-11T18:40:55.659Z,23.82
2022-08-11T18:43:45.733Z,23.88
2022-08-11T18:46:35.264Z,23.91
2022-08-11T18:50:01.680Z,23.97
2022-08-11T18:52:40.854Z,24.00
2022-08-11T18:55:33.230Z,24.13
2022-08-11T18:58:24.656Z,24.31
2022-08-11T19:01:16.033Z,24.38
2022-08-11T19:04:11.278Z,24.41
2022-08-11T19:07:07.021Z,24.50
2022-08-11T19:09:57.070Z,24.69
2022-08-11T19:12:44.880Z,24.81
2022-08-11T19:15:32.830Z,24.81
2022-08-11T19:18:21.949Z,24.83
2022-08-11T19:21:10.825Z,24.98
2022-08-11T19:24:04.387Z,25.17
2022-08-11T19:26:53.426Z,25.28
2022-08-11T19:30:07.316Z,25.23
2022-08-11T19:32:50.115Z,25.24
2022-08-11T19:35:38.529Z,25.33
2022-08-11T19:38:25.962Z,25.45
2022-08-11T19:41:13.910Z,25.47
2022-08-11T19:44:05.607Z,25.59
2022-08-11T19:46:52.811Z,25.66
2022-08-11T19:49:40.357Z,25.76
2022-08-11T19:52:27.448Z,25.83
2022-08-11T19:55:15.716Z,25.96
2022-08-11T19:58:03.881Z,26.02
2022-08-11T20:00:53.041Z,26.08
2022-08-11T20:03:39.961Z,26.19
2022-08-11T20:06:28.601Z,26.21
2022-08-11T20:09:19.410Z,26.11
2022-08-11T20:12:09.413Z,26.17
2022-08-11T20:14:59.354Z,26.22
2022-08-11T20:17:48.681Z,26.24
2022-08-11T20:20:37.052Z,26.23
2022-08-11T20:23:28.356Z,26.36
2022-08-11T20:26:30.793Z,26.46
2022-08-11T20:29:19.501Z,26.65
2022-08-11T20:32:09.722Z,26.68
2022-08-11T20:34:58.202Z,26.81
2022-08-11T20:37:50.817Z,27.06
2022-08-11T20:40:40.797Z,27.24
2022-08-11T20:44:05.926Z,27.34
2022-08-11T20:46:46.552Z,27.41
2022-08-11T20:49:44.363Z,27.54
2022-08-11T20:52:38.646Z,27.61
2022-08-11T20:55:45.656Z,27.69
2022-08-11T21:01:46.559Z,27.84
2022-08-11T21:04:34.111Z,27.92
2022-08-11T21:07:28.414Z,27.88
2022-08-11T21:10:23.377Z,27.96
2022-08-11T21:13:24.274Z,28.11
2022-08-11T21:16:26.138Z,28.19
2022-08-11T21:19:59.773Z,28.32
2022-08-11T21:22:59.351Z,28.57
2022-08-11T21:26:00.758Z,28.95
2022-08-11T21:28:49.916Z,28.99
2022-08-11T21:31:37.716Z,29.27
2022-08-11T21:34:25.562Z,29.37
2022-08-11T21:37:12.970Z,29.37
2022-08-11T21:40:01.910Z,29.39
2022-08-11T21:42:52.157Z,29.51
2022-08-11T21:45:39.967Z,29.85
2022-08-11T21:48:28.275Z,29.65
2022-08-11T21:51:15.141Z,29.58
2022-08-11T21:54:02.760Z,29.58
2022-08-11T21:56:53.156Z,29.59
2022-08-11T21:59:57.955Z,29.69
2022-08-11T22:02:49.031Z,29.66
2022-08-11T22:05:41.166Z,29.40
2022-08-11T22:08:28.357Z,29.28
2022-08-11T22:11:15.636Z,29.19
2022-08-11T22:14:08.101Z,29.26
2022-08-11T22:16:55.482Z,29.37
2022-08-11T22:19:44.071Z,29.29
2022-08-11T22:22:33.482Z,29.21
2022-08-11T22:25:22.321Z,29.21
2022-08-11T22:28:09.968Z,29.42
2022-08-11T22:30:57.641Z,29.33
2022-08-11T22:34:02.038Z,29.23
2022-08-11T22:36:51.077Z,29.19
2022-08-11T22:39:38.503Z,29.14
2022-08-11T22:42:34.010Z,29.10
2022-08-11T22:45:21.002Z,28.89
2022-08-11T22:48:08.623Z,28.87
2022-08-11T22:50:57.897Z,28.69
2022-08-11T22:53:57.950Z,28.53
2022-08-11T22:56:47.646Z,28.44
2022-08-11T22:59:36.342Z,28.32
2022-08-11T23:02:24.697Z,28.10
2022-08-11T23:05:12.477Z,28.11
2022-08-11T23:08:00.601Z,28.11
2022-08-11T23:10:47.962Z,28.12
2022-08-11T23:13:35.774Z,27.97
2022-08-11T23:16:23.245Z,27.56
2022-08-11T23:19:10.737Z,27.28
2022-08-11T23:21:58.889Z,27.15
2022-08-11T23:24:45.966Z,27.00
2022-08-11T23:27:34.508Z,26.68
2022-08-11T23:30:21.932Z,26.45
2022-08-11T23:33:13.572Z,26.28
2022-08-11T23:36:05.500Z,26.20
2022-08-11T23:38:52.732Z,26.10
2022-08-11T23:41:40.920Z,25.96
2022-08-11T23:44:28.916Z,25.73
2022-08-11T23:47:18.763Z,25.60
2022-08-11T23:50:07.336Z,25.51
2022-08-11T23:52:55.796Z,25.37
2022-08-11T23:55:42.842Z,25.30
2022-08-11T23:58:30.502Z,25.22
